Time;durP1;ratioP1;P1;durP2;ratioP2;P2;SDS_P1;SDS_P2;PMS_P1;PMS_P2;Temp;Humidity;BMP_temperature;BMP_pressure;BME280_temperature;BME280_humidity;BME280_pressure;Samples;Min_cycle;Max_cycle;Signal;HPM_P1;HPM_P2
2023/10/21 00:01:07;;;;;;;8.87;2.83;;;;;;;13.25;100.00;99131.91;5108100;28;20253;-66
2023/10/21 00:03:34;;;;;;;2.70;2.50;;;;;;;13.21;100.00;99124.41;5104647;28;20735;-66
2023/10/21 00:06:00;;;;;;;3.43;2.47;;;;;;;13.21;100.00;99130.38;5102967;28;20637;-66
2023/10/21 00:08:28;;;;;;;3.57;3.03;;;;;;;13.20;100.00;99122.72;5100777;27;20211;-66
2023/10/21 00:11:02;;;;;;;2.20;2.10;;;;;;;13.15;100.00;99128.91;5104086;28;20219;-66
2023/10/21 00:13:31;;;;;;;2.37;2.17;;;;;;;13.17;100.00;99122.84;5111455;27;20202;-66
2023/10/21 00:15:57;;;;;;;4.70;2.30;;;;;;;13.09;100.00;99124.03;5110217;28;20222;-67
2023/10/21 00:18:25;;;;;;;6.50;2.73;;;;;;;13.13;100.00;99130.72;5103682;28;20650;-66
2023/10/21 00:20:53;;;;;;;14.17;3.47;;;;;;;13.11;100.00;99126.53;5111773;28;20242;-67
2023/10/21 00:23:20;;;;;;;3.63;2.10;;;;;;;13.03;100.00;99115.72;5108662;28;20210;-66
2023/10/21 00:25:47;;;;;;;4.93;2.47;;;;;;;13.09;100.00;99136.06;5096722;28;20203;-66
2023/10/21 00:28:14;;;;;;;3.93;2.57;;;;;;;13.09;100.00;99133.47;5097409;28;20199;-67
2023/10/21 00:30:45;;;;;;;1.93;1.83;;;;;;;13.07;100.00;99127.53;5091257;28;20199;-66
2023/10/21 00:33:13;;;;;;;4.00;3.67;;;;;;;13.08;100.00;99131.81;5105474;27;20203;-67
2023/10/21 00:35:40;;;;;;;8.00;2.93;;;;;;;13.07;100.00;99133.53;5110463;28;20212;-66
2023/10/21 00:38:07;;;;;;;2.97;2.57;;;;;;;13.05;100.00;99129.38;5095601;28;20682;-66
2023/10/21 00:40:33;;;;;;;3.87;3.40;;;;;;;13.07;100.00;99132.69;5099170;28;20238;-66
2023/10/21 00:43:00;;;;;;;2.87;2.77;;;;;;;13.03;100.00;99128.56;5102128;27;20208;-66
2023/10/21 00:45:27;;;;;;;2.20;2.00;;;;;;;12.96;100.00;99125.44;5107550;28;20203;-66
2023/10/21 00:47:55;;;;;;;2.63;2.43;;;;;;;12.74;100.00;99123.88;5095724;27;20203;-66
2023/10/21 00:50:22;;;;;;;2.63;2.53;;;;;;;12.74;100.00;99118.72;5102397;28;20200;-66
2023/10/21 00:52:49;;;;;;;3.83;3.37;;;;;;;12.71;100.00;99118.88;5102438;28;20222;-66
2023/10/21 00:55:16;;;;;;;2.67;2.57;;;;;;;12.68;100.00;99121.56;5100620;28;20203;-66
2023/10/21 00:57:43;;;;;;;2.87;2.67;;;;;;;12.70;100.00;99122.34;5091568;28;20725;-66
2023/10/21 01:00:11;;;;;;;2.97;2.77;;;;;;;12.69;100.00;99124.09;5105905;28;20279;-66
2023/10/21 01:02:39;;;;;;;2.53;2.40;;;;;;;12.68;100.00;99130.13;5100680;28;20229;-66
2023/10/21 01:05:07;;;;;;;3.97;2.50;;;;;;;12.71;100.00;99129.16;5104902;28;20677;-66
2023/10/21 01:07:34;;;;;;;1.73;1.63;;;;;;;12.70;100.00;99123.16;5108324;28;20206;-66
2023/10/21 01:10:03;;;;;;;5.00;2.67;;;;;;;12.71;100.00;99134.28;5110499;28;20230;-66
2023/10/21 01:12:30;;;;;;;2.73;2.00;;;;;;;12.71;100.00;99129.16;5113233;28;20349;-66
2023/10/21 01:14:57;;;;;;;2.47;2.27;;;;;;;12.72;100.00;99123.13;5104100;28;20267;-66
2023/10/21 01:17:23;;;;;;;2.93;2.83;;;;;;;12.73;100.00;99129.94;5114079;28;20222;-66
2023/10/21 01:19:50;;;;;;;2.93;2.73;;;;;;;12.66;100.00;99141.38;5096591;28;20260;-66
2023/10/21 01:22:18;;;;;;;2.50;2.40;;;;;;;12.69;100.00;99136.09;5105333;28;20207;-66
2023/10/21 01:24:46;;;;;;;2.97;2.33;;;;;;;12.68;100.00;99124.13;5103258;28;20275;-66
2023/10/21 01:27:13;;;;;;;5.10;3.03;;;;;;;12.63;100.00;99138.03;5102946;28;20195;-66
2023/10/21 01:29:39;;;;;;;3.23;2.90;;;;;;;12.61;100.00;99129.56;5097674;28;20629;-66
2023/10/21 01:32:07;;;;;;;4.90;2.83;;;;;;;12.61;100.00;99129.56;5109012;27;20222;-66
2023/10/21 01:34:34;;;;;;;3.60;2.70;;;;;;;12.62;100.00;99135.53;5112294;28;20191;-67
2023/10/21 01:37:01;;;;;;;2.13;2.03;;;;;;;12.61;100.00;99132.13;5111854;28;20255;-66
2023/10/21 01:39:27;;;;;;;2.23;2.13;;;;;;;12.58;100.00;99134.81;5097085;28;20467;-66
2023/10/21 01:41:55;;;;;;;2.63;2.33;;;;;;;12.60;100.00;99133.00;5112464;28;20199;-67
2023/10/21 01:44:22;;;;;;;8.13;2.33;;;;;;;12.60;100.00;99143.28;5105931;28;20569;-66
2023/10/21 01:46:49;;;;;;;5.17;2.03;;;;;;;12.61;100.00;99139.00;5114437;28;20210;-66
2023/10/21 01:49:16;;;;;;;2.17;2.03;;;;;;;12.57;100.00;99140.84;5114256;28;20199;-66
2023/10/21 01:51:42;;;;;;;3.00;2.30;;;;;;;12.53;100.00;99144.47;5114313;28;20254;-66
2023/10/21 01:54:09;;;;;;;2.97;2.40;;;;;;;12.53;100.00;99144.47;5107341;28;20249;-66
2023/10/21 01:56:36;;;;;;;2.87;2.50;;;;;;;12.53;100.00;99147.06;5093938;28;20749;-66
2023/10/21 01:59:04;;;;;;;2.53;2.43;;;;;;;12.53;100.00;99147.06;5113785;28;20251;-66
2023/10/21 02:01:31;;;;;;;2.23;2.13;;;;;;;12.45;100.00;99151.66;5109133;28;20196;-66
2023/10/21 02:03:57;;;;;;;1.83;1.70;;;;;;;12.42;100.00;99144.09;5097049;28;20637;-66
2023/10/21 02:06:24;;;;;;;1.87;1.87;;;;;;;12.41;100.00;99146.69;5102893;27;20254;-66
2023/10/21 02:08:51;;;;;;;4.80;2.80;;;;;;;12.37;100.00;99151.16;5094495;28;20343;-66
2023/10/21 02:11:21;;;;;;;2.30;2.20;;;;;;;12.35;100.00;99152.94;5109233;28;20190;-66
2023/10/21 02:13:47;;;;;;;2.93;2.83;;;;;;;12.36;100.00;99164.91;5113929;28;20206;-66
2023/10/21 02:16:16;;;;;;;3.73;2.80;;;;;;;12.36;100.00;99164.06;5112408;28;20579;-66
2023/10/21 02:18:42;;;;;;;2.83;2.13;;;;;;;12.36;100.00;99170.03;5113516;28;20195;-66
2023/10/21 02:21:11;;;;;;;2.10;2.00;;;;;;;12.36;100.00;99180.31;5095173;28;20196;-67
2023/10/21 02:23:37;;;;;;;2.40;2.30;;;;;;;12.36;100.00;99182.06;5093713;28;20660;-66
2023/10/21 02:26:06;;;;;;;2.50;2.30;;;;;;;12.36;100.00;99174.34;5108834;27;20202;-66
2023/10/21 02:28:34;;;;;;;3.67;3.47;;;;;;;12.37;100.00;99176.88;5113915;28;20232;-66
2023/10/21 02:31:03;;;;;;;2.40;2.30;;;;;;;12.26;100.00;99173.88;5098745;27;20613;-65
2023/10/21 02:33:31;;;;;;;2.53;2.33;;;;;;;12.35;100.00;99194.06;5111174;28;20222;-67
2023/10/21 02:35:57;;;;;;;1.97;1.80;;;;;;;12.33;100.00;99189.91;5113252;28;20267;-66
2023/10/21 02:38:25;;;;;;;2.10;2.00;;;;;;;12.34;100.00;99197.53;5093794;27;20244;-66
2023/10/21 02:40:52;;;;;;;2.23;2.03;;;;;;;12.33;100.00;99189.91;5107272;27;20195;-66
2023/10/21 02:43:18;;;;;;;2.90;2.70;;;;;;;12.31;100.00;99194.28;5113051;28;20199;-66
2023/10/21 02:45:45;;;;;;;3.47;2.73;;;;;;;12.31;100.00;99207.13;5111476;27;20202;-66
2023/10/21 02:48:12;;;;;;;1.90;1.80;;;;;;;12.30;100.00;99206.28;5113173;28;20190;-66
2023/10/21 02:50:40;;;;;;;2.33;1.80;;;;;;;12.27;100.00;99214.13;5099208;28;20210;-66
2023/10/21 02:53:07;;;;;;;3.53;1.60;;;;;;;12.22;100.00;99207.47;5107386;28;20670;-66
2023/10/21 02:55:34;;;;;;;1.97;1.87;;;;;;;12.16;100.00;99203.41;5092839;28;20204;-66
2023/10/21 02:58:01;;;;;;;2.13;2.03;;;;;;;12.12;100.00;99198.47;5098784;28;20237;-66
2023/10/21 03:00:28;;;;;;;3.33;2.53;;;;;;;12.06;100.00;99213.22;5112696;28;20202;-66
2023/10/21 03:02:55;;;;;;;2.10;2.00;;;;;;;12.06;100.00;99209.81;5112833;28;20190;-66
2023/10/21 03:05:22;;;;;;;3.07;2.73;;;;;;;12.01;100.00;99211.75;5106605;28;20203;-66
2023/10/21 03:07:50;;;;;;;2.30;2.10;;;;;;;11.94;100.00;99218.00;5092306;28;20231;-66
2023/10/21 03:10:17;;;;;;;1.70;1.63;;;;;;;11.93;100.00;99216.31;5108116;27;20211;-66
2023/10/21 03:12:44;;;;;;;3.33;2.17;;;;;;;11.90;100.00;99222.41;5105211;27;20214;-66
2023/10/21 03:15:11;;;;;;;2.07;1.97;;;;;;;11.87;100.00;99216.56;5113191;28;20199;-66
2023/10/21 03:17:37;;;;;;;2.77;2.47;;;;;;;11.89;100.00;99230.19;5112513;27;20267;-66
2023/10/21 03:20:06;;;;;;;3.10;2.17;;;;;;;11.86;100.00;99220.00;5112533;28;20202;-66
2023/10/21 03:22:32;;;;;;;2.23;1.93;;;;;;;11.84;100.00;99230.34;5112508;28;20575;-66
2023/10/21 03:25:00;;;;;;;1.77;1.70;;;;;;;11.80;100.00;99230.53;5112473;28;20198;-66
2023/10/21 03:27:27;;;;;;;2.13;2.13;;;;;;;11.77;100.00;99235.78;5109246;28;20637;-66
2023/10/21 03:29:54;;;;;;;3.27;1.63;;;;;;;11.76;100.00;99236.69;5101802;27;20203;-66
2023/10/21 03:32:20;;;;;;;3.00;1.50;;;;;;;11.79;100.00;99228.88;5102277;28;20499;-66
2023/10/21 03:34:47;;;;;;;1.40;1.40;;;;;;;11.79;100.00;99231.44;5110156;28;20204;-66
2023/10/21 03:37:14;;;;;;;1.90;1.80;;;;;;;11.78;100.00;99234.88;5111685;28;20202;-66
2023/10/21 03:39:41;;;;;;;1.80;1.70;;;;;;;11.77;100.00;99230.63;5107316;27;20632;-66
2023/10/21 03:42:09;;;;;;;3.60;2.37;;;;;;;11.77;100.00;99230.63;5111776;28;20278;-66
2023/10/21 03:44:36;;;;;;;1.43;1.43;;;;;;;11.74;100.00;99225.63;5112317;28;20219;-66
2023/10/21 03:47:02;;;;;;;1.80;1.80;;;;;;;11.73;100.00;99229.09;5095771;28;20667;-66
2023/10/21 03:49:30;;;;;;;1.77;1.73;;;;;;;11.71;100.00;99230.88;5105519;28;20208;-66
2023/10/21 03:51:57;;;;;;;4.27;2.73;;;;;;;11.74;100.00;99235.88;5093592;27;22186;-66
2023/10/21 03:54:23;;;;;;;2.17;2.07;;;;;;;11.70;100.00;99226.59;5091905;28;20256;-66
2023/10/21 03:56:51;;;;;;;2.03;1.93;;;;;;;11.69;100.00;99220.63;5097768;28;20203;-66
2023/10/21 03:59:19;;;;;;;2.13;2.03;;;;;;;11.71;100.00;99225.72;5111555;28;20195;-66
2023/10/21 04:01:46;;;;;;;1.27;1.27;;;;;;;11.62;100.00;99203.78;5112513;27;20228;-66
2023/10/21 04:04:13;;;;;;;2.13;2.03;;;;;;;11.65;100.00;99206.25;5101655;27;20195;-66
2023/10/21 04:06:40;;;;;;;4.00;1.90;;;;;;;11.69;100.00;99212.94;5110842;28;20211;-66
2023/10/21 04:09:07;;;;;;;2.00;1.87;;;;;;;11.66;100.00;99214.78;5110494;28;20199;-66
2023/10/21 04:11:34;;;;;;;2.13;1.93;;;;;;;11.64;100.00;99214.81;5109566;27;20290;-66
2023/10/21 04:14:04;;;;;;;1.13;1.13;;;;;;;11.65;100.00;99216.50;5110450;28;20762;-66
2023/10/21 04:16:32;;;;;;;1.40;1.30;;;;;;;11.66;100.00;99217.34;5108711;27;20219;-66
2023/10/21 04:18:59;;;;;;;1.53;1.43;;;;;;;11.64;100.00;99208.84;5109784;28;20705;-66
2023/10/21 04:21:26;;;;;;;2.60;2.50;;;;;;;11.65;100.00;99206.25;5107274;28;20202;-66
2023/10/21 04:23:54;;;;;;;1.40;1.40;;;;;;;11.64;100.00;99203.72;5105130;28;20570;-66
2023/10/21 04:26:20;;;;;;;1.80;1.70;;;;;;;11.60;100.00;99214.09;5107031;28;20260;-66
2023/10/21 04:28:47;;;;;;;3.30;2.13;;;;;;;11.56;100.00;99207.44;5102289;28;20264;-66
2023/10/21 04:31:14;;;;;;;2.57;2.40;;;;;;;11.51;100.00;99214.44;5110258;27;20260;-65
2023/10/21 04:33:42;;;;;;;2.47;2.10;;;;;;;11.46;100.00;99215.50;5108674;28;20222;-66
2023/10/21 04:36:09;;;;;;;1.40;1.40;;;;;;;11.43;100.00;99221.59;5109275;28;20214;-66
2023/10/21 04:38:34;;;;;;;2.13;2.03;;;;;;;11.40;100.00;99216.59;5109887;28;20201;-66
2023/10/21 04:41:02;;;;;;;1.43;1.43;;;;;;;11.35;100.00;99218.47;5111216;27;20199;-67
2023/10/21 04:43:29;;;;;;;2.53;2.33;;;;;;;11.33;100.00;99221.97;5094846;28;20682;-66
2023/10/21 04:45:56;;;;;;;1.73;1.63;;;;;;;11.34;100.00;99226.22;5108130;28;20275;-66
2023/10/21 04:48:22;;;;;;;2.83;2.63;;;;;;;11.30;100.00;99225.50;5110758;28;20199;-65
2023/10/21 04:50:50;;;;;;;1.60;1.50;;;;;;;11.32;100.00;99236.53;5110583;28;20210;-66
2023/10/21 04:53:17;;;;;;;1.40;1.30;;;;;;;11.33;100.00;99245.94;5111535;27;20214;-67
2023/10/21 04:55:44;;;;;;;2.40;2.20;;;;;;;11.35;100.00;99238.16;5094906;28;20198;-65
2023/10/21 04:58:10;;;;;;;1.40;1.40;;;;;;;11.37;100.00;99244.91;5109342;28;20564;-66
2023/10/21 05:00:37;;;;;;;2.53;2.37;;;;;;;11.32;100.00;99244.25;5105808;28;20278;-66
2023/10/21 05:03:04;;;;;;;1.83;1.50;;;;;;;11.35;100.00;99251.81;5110834;28;20670;-66
2023/10/21 05:05:34;;;;;;;2.00;1.93;;;;;;;11.36;100.00;99250.09;5110558;28;20725;-65
2023/10/21 05:08:02;;;;;;;1.87;1.77;;;;;;;11.32;100.00;99251.94;5110347;28;20203;-66
2023/10/21 05:10:29;;;;;;;1.83;1.77;;;;;;;11.33;100.00;99255.34;5110468;28;20666;-66
2023/10/21 05:12:56;;;;;;;2.57;2.40;;;;;;;11.29;100.00;99257.19;5110123;28;20210;-66
2023/10/21 05:15:23;;;;;;;1.90;1.80;;;;;;;11.33;100.00;99261.31;5110969;28;20202;-66
2023/10/21 05:17:50;;;;;;;1.83;1.60;;;;;;;11.34;100.00;99270.66;5110434;28;20591;-66
2023/10/21 05:20:17;;;;;;;2.53;2.37;;;;;;;11.35;100.00;99268.94;5110414;28;20243;-66
2023/10/21 05:22:44;;;;;;;1.67;1.57;;;;;;;11.27;100.00;99269.25;5110791;27;20706;-66
2023/10/21 05:25:12;;;;;;;2.07;1.93;;;;;;;11.32;100.00;99281.88;5110202;28;20255;-66
2023/10/21 05:27:39;;;;;;;2.07;1.70;;;;;;;11.33;100.00;99286.97;5109673;28;20206;-66
2023/10/21 05:30:07;;;;;;;2.50;2.30;;;;;;;11.37;100.00;99277.44;5104132;28;20198;-66
2023/10/21 05:32:34;;;;;;;2.03;2.03;;;;;;;11.43;100.00;99283.22;5110900;28;20256;-66
2023/10/21 05:35:00;;;;;;;2.27;2.07;;;;;;;11.45;100.00;99290.84;5110515;28;20198;-66
2023/10/21 05:37:27;;;;;;;1.93;1.83;;;;;;;11.48;100.00;99285.59;5109848;28;20256;-66
2023/10/21 05:39:54;;;;;;;1.70;1.60;;;;;;;11.51;100.00;99296.59;5110193;28;20198;-66
2023/10/21 05:42:22;;;;;;;3.57;1.93;;;;;;;11.56;100.00;99310.13;5106196;28;20199;-66
2023/10/21 05:44:49;;;;;;;1.37;1.37;;;;;;;11.62;100.00;99314.19;5110540;28;20199;-66
2023/10/21 05:47:16;;;;;;;1.97;1.90;;;;;;;11.68;100.00;99310.56;5109568;28;20191;-66
2023/10/21 05:49:42;;;;;;;2.43;2.33;;;;;;;11.69;100.00;99305.38;5094547;28;20199;-66
2023/10/21 05:52:09;;;;;;;2.47;2.27;;;;;;;11.59;100.00;99291.19;5104849;28;20617;-62
2023/10/21 05:54:36;;;;;;;2.23;2.13;;;;;;;11.76;100.00;99311.97;5101691;27;20215;-62
2023/10/21 05:57:03;;;;;;;2.53;2.33;;;;;;;11.81;100.00;99304.13;5112348;28;20199;-61
2023/10/21 05:59:31;;;;;;;1.97;1.97;;;;;;;11.90;100.00;99298.63;5103834;28;20697;-62
2023/10/21 06:01:58;;;;;;;1.37;1.37;;;;;;;11.94;100.00;99306.19;5094371;28;20196;-61
2023/10/21 06:04:25;;;;;;;3.30;2.30;;;;;;;12.00;100.00;99310.25;5100792;28;20232;-61
2023/10/21 06:06:54;;;;;;;2.00;1.90;;;;;;;12.02;100.00;99311.00;5106380;28;20195;-61
2023/10/21 06:09:21;;;;;;;11.87;2.00;;;;;;;12.07;100.00;99312.53;5113447;28;20235;-66
2023/10/21 06:11:48;;;;;;;3.33;2.13;;;;;;;12.13;100.00;99314.03;5111926;28;20202;-66
2023/10/21 06:14:14;;;;;;;2.73;2.53;;;;;;;12.20;100.00;99318.06;5095301;28;20215;-66
2023/10/21 06:16:43;;;;;;;2.63;2.53;;;;;;;12.26;100.00;99325.53;5102536;28;20279;-66
2023/10/21 06:19:09;;;;;;;4.03;3.67;;;;;;;12.37;100.00;99330.25;5110375;28;20598;-66
2023/10/21 06:21:36;;;;;;;3.00;2.80;;;;;;;12.44;100.00;99322.22;5113017;28;20204;-66
2023/10/21 06:24:03;;;;;;;7.97;2.40;;;;;;;12.54;100.00;99315.84;5104716;27;20239;-66
2023/10/21 06:26:31;;;;;;;2.53;1.90;;;;;;;12.61;100.00;99314.69;5115466;27;20702;-66
2023/10/21 06:28:58;;;;;;;2.13;2.03;;;;;;;12.68;100.00;99309.31;5104170;28;20205;-66
2023/10/21 06:31:25;;;;;;;2.23;1.87;;;;;;;12.70;100.00;99308.34;5108838;27;20278;-66
2023/10/21 06:33:54;;;;;;;5.47;3.37;;;;;;;12.85;100.00;99322.34;5096281;27;20264;-66
2023/10/21 06:36:21;;;;;;;4.17;2.63;;;;;;;12.87;100.00;99315.38;5113917;27;20293;-66
2023/10/21 06:38:49;;;;;;;4.37;4.00;;;;;;;12.92;100.00;99319.47;5106192;27;20438;-68
2023/10/21 06:41:16;;;;;;;2.47;2.37;;;;;;;12.98;100.00;99308.06;5112605;28;20483;-67
2023/10/21 06:43:43;;;;;;;2.77;2.60;;;;;;;13.17;100.00;99334.75;5113602;28;20194;-67
2023/10/21 06:46:10;;;;;;;2.67;2.47;;;;;;;13.25;100.00;99324.97;5105616;28;20700;-67
2023/10/21 06:48:38;;;;;;;3.97;3.30;;;;;;;13.32;100.00;99322.97;5101191;28;20230;-67
2023/10/21 06:51:06;;;;;;;2.17;2.07;;;;;;;13.38;100.00;99318.38;5112094;28;20574;-67
2023/10/21 06:53:33;;;;;;;3.27;3.07;;;;;;;13.47;100.00;99323.13;5110912;28;20263;-67
2023/10/21 06:55:59;;;;;;;2.67;2.53;;;;;;;13.60;100.00;99334.59;5105051;28;20202;-67
2023/10/21 06:58:27;;;;;;;6.83;2.40;;;;;;;13.73;100.00;99329.75;5112541;28;20200;-67
2023/10/21 07:00:55;;;;;;;2.20;2.10;;;;;;;13.87;100.00;99342.00;5112683;27;20203;-68
2023/10/21 07:03:22;;;;;;;2.80;2.60;;;;;;;13.98;100.00;99334.66;5112838;28;20195;-68
2023/10/21 07:05:49;;;;;;;3.07;2.87;;;;;;;14.10;100.00;99332.34;5105185;28;20646;-68
2023/10/21 07:08:17;;;;;;;3.27;3.13;;;;;;;14.29;100.00;99340.06;5112362;28;20205;-67
2023/10/21 07:10:44;;;;;;;2.80;2.70;;;;;;;14.41;100.00;99334.38;5092974;28;20282;-68
2023/10/21 07:13:11;;;;;;;3.07;2.47;;;;;;;14.54;100.00;99324.34;5111342;28;20211;-67
2023/10/21 07:15:40;;;;;;;2.40;2.13;;;;;;;14.86;100.00;99331.38;5112534;28;20256;-67
2023/10/21 07:18:07;;;;;;;2.27;2.00;;;;;;;15.03;100.00;99328.78;5112587;28;20192;-67
2023/10/21 07:20:36;;;;;;;3.43;3.23;;;;;;;15.19;100.00;99341.75;5112701;28;20211;-67
2023/10/21 07:23:03;;;;;;;3.47;3.27;;;;;;;15.41;100.00;99326.84;5112495;28;20213;-67
2023/10/21 07:25:31;;;;;;;2.57;2.47;;;;;;;15.58;100.00;99326.88;5112612;28;20635;-67
2023/10/21 07:27:58;;;;;;;3.63;3.33;;;;;;;15.77;100.00;99325.94;5112055;28;20246;-67
2023/10/21 07:30:27;;;;;;;3.40;3.20;;;;;;;15.99;100.00;99331.63;5112484;28;20203;-67
2023/10/21 07:32:55;;;;;;;3.27;3.07;;;;;;;16.27;100.00;99330.06;5110909;28;20199;-67
2023/10/21 07:35:22;;;;;;;2.33;2.23;;;;;;;16.47;100.00;99338.50;5110911;28;20259;-67
2023/10/21 07:37:49;;;;;;;2.77;2.57;;;;;;;16.73;100.00;99336.16;5112189;28;20202;-67
2023/10/21 07:40:16;;;;;;;3.37;3.17;;;;;;;16.88;100.00;99318.06;5112695;28;20198;-67
2023/10/21 07:42:44;;;;;;;4.03;3.73;;;;;;;17.17;100.00;99327.59;5111741;28;20260;-67
2023/10/21 07:45:14;;;;;;;2.63;2.53;;;;;;;17.41;100.00;99338.28;5112242;28;20241;-67
2023/10/21 07:47:41;;;;;;;3.00;2.87;;;;;;;17.65;100.00;99326.47;5111954;28;20668;-67
2023/10/21 07:50:08;;;;;;;3.97;3.00;;;;;;;17.88;100.00;99331.13;5112335;28;20321;-67
2023/10/21 07:52:36;;;;;;;7.20;3.70;;;;;;;18.13;100.00;99325.25;5111899;28;20203;-67
2023/10/21 07:55:03;;;;;;;3.20;3.07;;;;;;;18.34;100.00;99327.34;5112406;28;20638;-67
2023/10/21 07:57:30;;;;;;;2.57;2.47;;;;;;;18.55;100.00;99332.97;5112083;28;20709;-67
2023/10/21 07:59:59;;;;;;;2.83;2.40;;;;;;;18.74;100.00;99333.44;5102723;28;20216;-68
2023/10/21 08:02:26;;;;;;;3.40;3.10;;;;;;;18.92;100.00;99328.00;5098346;28;20205;-68
2023/10/21 08:04:53;;;;;;;3.87;3.60;;;;;;;19.03;100.00;99330.75;5091013;28;20250;-67
2023/10/21 08:07:21;;;;;;;3.13;2.93;;;;;;;19.15;100.00;99332.53;5096550;28;20215;-68
2023/10/21 08:09:48;;;;;;;3.03;2.83;;;;;;;19.37;100.00;99324.94;5103493;28;20761;-67
2023/10/21 08:12:15;;;;;;;5.17;4.87;;;;;;;19.55;99.70;99318.53;5095872;28;20198;-68
2023/10/21 08:14:41;;;;;;;4.17;3.77;;;;;;;19.76;97.97;99317.06;5104308;28;20761;-67
2023/10/21 08:17:09;;;;;;;4.03;3.73;;;;;;;19.88;97.55;99326.63;5111304;28;20238;-68
2023/10/21 08:19:36;;;;;;;3.57;3.27;;;;;;;20.00;95.80;99324.13;5110258;28;20209;-68
2023/10/21 08:22:03;;;;;;;3.73;3.37;;;;;;;20.17;95.75;99326.34;5111447;28;20197;-67
2023/10/21 08:24:31;;;;;;;21.93;3.73;;;;;;;20.33;93.65;99316.53;5111857;27;20666;-67
2023/10/21 08:26:59;;;;;;;3.57;3.37;;;;;;;20.52;92.81;99322.09;5096286;28;20202;-67
2023/10/21 08:29:26;;;;;;;4.00;3.77;;;;;;;20.61;91.27;99318.84;5111140;28;20198;-68
2023/10/21 08:31:52;;;;;;;3.77;3.53;;;;;;;20.66;90.91;99308.91;5108764;28;20202;-68
2023/10/21 08:34:21;;;;;;;3.70;3.00;;;;;;;20.88;89.72;99316.81;5110980;28;20290;-68
2023/10/21 08:36:49;;;;;;;3.40;3.07;;;;;;;21.06;89.94;99316.41;5111484;28;20670;-67
2023/10/21 08:39:16;;;;;;;5.83;3.40;;;;;;;21.13;86.97;99322.88;5111101;28;20263;-68
2023/10/21 08:41:43;;;;;;;2.90;2.50;;;;;;;21.18;87.07;99315.53;5110885;28;20202;-68
2023/10/21 08:44:13;;;;;;;3.00;2.80;;;;;;;21.26;87.68;99323.63;5111286;28;20201;-68
2023/10/21 08:46:41;;;;;;;3.80;3.50;;;;;;;21.32;85.75;99317.94;5111095;28;20206;-68
2023/10/21 08:49:09;;;;;;;3.33;3.03;;;;;;;21.36;85.80;99321.94;5110674;28;20215;-68
2023/10/21 08:51:39;;;;;;;3.10;3.00;;;;;;;21.52;85.63;99319.84;5111280;28;20618;-68
2023/10/21 08:54:07;;;;;;;3.43;3.23;;;;;;;21.65;84.86;99323.19;5110255;28;20225;-67
2023/10/21 08:56:35;;;;;;;2.97;2.77;;;;;;;21.78;85.46;99321.28;5110743;28;20198;-67
2023/10/21 08:59:02;;;;;;;3.90;3.57;;;;;;;21.79;83.91;99301.25;5110530;28;20321;-68
2023/10/21 09:01:29;;;;;;;3.00;2.87;;;;;;;21.84;83.68;99305.16;5110876;28;20206;-68
2023/10/21 09:03:57;;;;;;;3.33;2.87;;;;;;;21.86;83.08;99292.84;5110105;28;20202;-68
2023/10/21 09:06:24;;;;;;;5.73;2.90;;;;;;;22.01;84.51;99303.03;5110847;28;20198;-68
2023/10/21 09:08:52;;;;;;;3.77;3.57;;;;;;;22.13;86.33;99304.69;5110694;28;20191;-68
2023/10/21 09:11:20;;;;;;;6.87;4.03;;;;;;;22.20;83.86;99295.41;5110319;28;20259;-67
2023/10/21 09:13:48;;;;;;;3.77;3.40;;;;;;;22.33;83.94;99291.69;5110703;28;20339;-68
2023/10/21 09:16:20;;;;;;;4.37;3.97;;;;;;;22.48;83.05;99292.28;5111001;28;20233;-68
2023/10/21 09:18:57;;;;;;;3.30;3.10;;;;;;;22.52;83.29;99285.81;5108939;28;20199;-68
2023/10/21 09:21:42;;;;;;;3.83;3.63;;;;;;;22.72;81.29;99292.06;5110613;28;20198;-68
2023/10/21 09:24:11;;;;;;;3.63;3.43;;;;;;;22.77;82.11;99288.16;5103569;28;20192;-68
2023/10/21 09:26:39;;;;;;;3.50;3.13;;;;;;;22.78;81.59;99287.19;5090641;28;20663;-68
2023/10/21 09:29:11;;;;;;;4.20;3.00;;;;;;;22.98;81.67;99283.75;5102676;28;20236;-68
2023/10/21 09:31:51;;;;;;;3.57;3.37;;;;;;;23.05;80.01;99264.94;5110948;28;20203;-68
2023/10/21 09:34:24;;;;;;;4.50;4.20;;;;;;;23.28;79.45;99282.16;5114837;28;20643;-67
2023/10/21 09:36:52;;;;;;;4.40;4.10;;;;;;;23.27;78.35;99267.41;5114972;28;20201;-68
2023/10/21 09:39:22;;;;;;;4.87;3.57;;;;;;;23.20;78.67;99271.53;5114744;28;20204;-67
2023/10/21 09:41:49;;;;;;;3.73;3.43;;;;;;;23.28;78.83;99272.53;5099568;28;20583;-67
2023/10/21 09:44:17;;;;;;;3.10;2.70;;;;;;;23.39;78.31;99248.06;5094383;28;20192;-68
2023/10/21 09:46:44;;;;;;;3.27;3.07;;;;;;;23.38;78.24;99249.03;5094406;28;20253;-68
2023/10/21 09:49:13;;;;;;;3.37;3.13;;;;;;;23.44;77.84;99254.59;5094914;28;20232;-67
2023/10/21 09:52:04;;;;;;;2.37;2.27;;;;;;;23.59;78.03;99249.81;5094593;28;20195;-67
2023/10/21 09:54:41;;;;;;;2.53;2.33;;;;;;;23.69;77.79;99242.00;5107192;28;20217;-68
2023/10/21 09:57:11;;;;;;;3.60;3.37;;;;;;;23.73;77.07;99257.31;5114570;28;20225;-68
2023/10/21 09:59:39;;;;;;;3.13;3.00;;;;;;;23.83;76.61;99246.88;5110178;28;20249;-68
2023/10/21 10:02:06;;;;;;;3.17;2.97;;;;;;;23.78;77.02;99236.81;5094353;28;20655;-68
2023/10/21 10:04:36;;;;;;;2.40;2.30;;;;;;;23.84;78.27;99248.56;5112947;28;20195;-68
2023/10/21 10:07:07;;;;;;;2.40;2.30;;;;;;;23.99;75.78;99234.13;5114315;28;20229;-68
2023/10/21 10:09:36;;;;;;;2.73;2.53;;;;;;;23.98;74.81;99235.91;5114036;28;20201;-68
2023/10/21 10:12:12;;;;;;;2.60;2.50;;;;;;;24.07;75.08;99241.31;5112748;28;20198;-67
2023/10/21 10:14:38;;;;;;;3.60;3.17;;;;;;;24.22;75.14;99221.63;5113849;28;20629;-68
2023/10/21 10:17:06;;;;;;;2.83;2.20;;;;;;;24.35;74.22;99227.44;5113663;28;20710;-68
2023/10/21 10:19:37;;;;;;;2.50;2.30;;;;;;;24.44;74.38;99230.06;5113995;28;20217;-68
2023/10/21 10:22:18;;;;;;;2.50;2.37;;;;;;;24.51;72.67;99214.63;5114197;28;20194;-68
2023/10/21 10:24:51;;;;;;;3.60;2.70;;;;;;;24.60;73.59;99213.78;5113217;28;20661;-68
2023/10/21 10:27:18;;;;;;;1.70;1.67;;;;;;;24.62;72.49;99214.44;5114150;28;20218;-68
2023/10/21 10:29:46;;;;;;;2.30;2.20;;;;;;;24.69;72.85;99207.69;5113632;28;20259;-67
2023/10/21 10:32:14;;;;;;;2.20;2.00;;;;;;;24.83;71.65;99196.81;5113532;28;20206;-68
2023/10/21 10:34:52;;;;;;;2.37;2.27;;;;;;;24.91;71.82;99202.16;5113782;28;20614;-68
2023/10/21 10:37:50;;;;;;;1.97;1.83;;;;;;;25.02;69.02;99201.16;5113745;28;20210;-68
2023/10/21 10:40:20;;;;;;;3.13;2.13;;;;;;;25.00;69.17;99190.84;5113345;28;20285;-68
2023/10/21 10:42:46;;;;;;;4.23;2.27;;;;;;;25.13;70.62;99189.69;5105122;28;20194;-68
2023/10/21 10:45:13;;;;;;;2.57;2.47;;;;;;;25.15;69.95;99188.56;5111942;28;20198;-68
2023/10/21 10:47:41;;;;;;;2.10;2.00;;;;;;;25.27;70.63;99178.72;5113102;28;20321;-68
2023/10/21 10:50:12;;;;;;;2.50;2.07;;;;;;;25.39;69.36;99180.19;5112901;28;20211;-68
2023/10/21 10:52:39;;;;;;;2.20;2.00;;;;;;;25.40;68.89;99172.16;5109463;28;20582;-68
2023/10/21 10:55:08;;;;;;;3.33;3.13;;;;;;;25.51;68.06;99179.06;5112292;28;20716;-67
2023/10/21 10:57:37;;;;;;;3.83;2.57;;;;;;;25.59;68.01;99184.38;5113235;28;20199;-68
2023/10/21 11:00:10;;;;;;;2.90;2.70;;;;;;;25.69;68.28;99177.28;5112494;28;20624;-67
2023/10/21 11:02:42;;;;;;;1.63;1.50;;;;;;;25.77;67.60;99174.78;5113218;28;20658;-68
2023/10/21 11:05:10;;;;;;;1.50;1.40;;;;;;;25.91;64.53;99184.75;5110832;27;20447;-67
2023/10/21 11:07:37;;;;;;;1.60;1.50;;;;;;;26.04;63.83;99168.66;5102563;27;20206;-67
2023/10/21 11:10:06;;;;;;;1.80;1.70;;;;;;;26.15;64.18;99172.84;5099149;27;20198;-67
2023/10/21 11:12:33;;;;;;;1.67;1.30;;;;;;;26.29;62.16;99169.72;5108707;27;20329;-67
2023/10/21 11:15:05;;;;;;;1.40;1.37;;;;;;;26.28;62.73;99173.31;5098913;28;20253;-67
2023/10/21 11:17:33;;;;;;;1.70;1.60;;;;;;;26.33;64.32;99179.78;5103821;28;20238;-67
2023/10/21 11:20:00;;;;;;;1.63;1.53;;;;;;;26.40;63.86;99180.81;5108037;28;20285;-67
2023/10/21 11:22:26;;;;;;;1.77;1.67;;;;;;;26.51;63.12;99163.97;5110210;27;20204;-67
2023/10/21 11:24:53;;;;;;;1.70;1.57;;;;;;;26.61;62.34;99169.97;5101381;27;20702;-67
2023/10/21 11:27:20;;;;;;;1.70;1.60;;;;;;;26.72;61.96;99174.16;5110460;27;20728;-67
2023/10/21 11:29:51;;;;;;;1.57;1.47;;;;;;;26.79;60.81;99160.22;5104031;27;20222;-67